sensor_id;sensor_type;location;lat;lon;timestamp;temperature;humidity
22418;DHT22;11376;50.932;4.442;2023-02-28T00:01:28;1.10;99.90
22418;DHT22;11376;50.932;4.442;2023-02-28T00:03:53;1.20;99.90
22418;DHT22;11376;50.932;4.442;2023-02-28T00:06:19;1.10;99.90
22418;DHT22;11376;50.932;4.442;2023-02-28T00:08:46;1.10;99.90
22418;DHT22;11376;50.932;4.442;2023-02-28T00:11:13;1.10;99.90
22418;DHT22;11376;50.932;4.442;2023-02-28T00:13:41;1.10;99.90
22418;DHT22;11376;50.932;4.442;2023-02-28T00:16:13;1.10;99.90
22418;DHT22;11376;50.932;4.442;2023-02-28T00:18:40;1.10;99.90
22418;DHT22;11376;50.932;4.442;2023-02-28T00:21:06;1.10;99.90
22418;DHT22;11376;50.932;4.442;2023-02-28T00:23:32;1.00;99.90
22418;DHT22;11376;50.932;4.442;2023-02-28T00:25:58;1.00;99.90
22418;DHT22;11376;50.932;4.442;2023-02-28T00:28:24;0.90;99.90
22418;DHT22;11376;50.932;4.442;2023-02-28T00:30:50;0.90;99.90
22418;DHT22;11376;50.932;4.442;2023-02-28T00:33:16;0.90;99.90
22418;DHT22;11376;50.932;4.442;2023-02-28T00:35:42;0.80;99.90
22418;DHT22;11376;50.932;4.442;2023-02-28T00:38:08;0.80;99.90
22418;DHT22;11376;50.932;4.442;2023-02-28T00:40:34;0.70;99.90
22418;DHT22;11376;50.932;4.442;2023-02-28T00:43:00;0.70;99.90
22418;DHT22;11376;50.932;4.442;2023-02-28T00:45:25;0.70;99.90
22418;DHT22;11376;50.932;4.442;2023-02-28T00:47:51;0.60;99.90
22418;DHT22;11376;50.932;4.442;2023-02-28T00:50:19;0.60;99.90
22418;DHT22;11376;50.932;4.442;2023-02-28T00:52:45;0.60;99.90
22418;DHT22;11376;50.932;4.442;2023-02-28T00:55:11;0.60;99.90
22418;DHT22;11376;50.932;4.442;2023-02-28T00:57:37;0.60;99.90
22418;DHT22;11376;50.932;4.442;2023-02-28T01:00:03;0.60;99.90
22418;DHT22;11376;50.932;4.442;2023-02-28T01:02:29;0.50;99.90
22418;DHT22;11376;50.932;4.442;2023-02-28T01:04:55;0.50;99.90
22418;DHT22;11376;50.932;4.442;2023-02-28T01:07:22;0.60;99.90
22418;DHT22;11376;50.932;4.442;2023-02-28T01:09:48;0.60;99.90
22418;DHT22;11376;50.932;4.442;2023-02-28T01:12:13;0.60;99.90
22418;DHT22;11376;50.932;4.442;2023-02-28T01:14:39;0.70;99.90
22418;DHT22;11376;50.932;4.442;2023-02-28T01:17:04;0.60;99.90
22418;DHT22;11376;50.932;4.442;2023-02-28T01:19:30;0.70;99.90
22418;DHT22;11376;50.932;4.442;2023-02-28T01:21:56;0.70;99.90
22418;DHT22;11376;50.932;4.442;2023-02-28T01:24:21;0.60;99.90
22418;DHT22;11376;50.932;4.442;2023-02-28T01:26:47;0.60;99.90
22418;DHT22;11376;50.932;4.442;2023-02-28T01:29:12;0.50;99.90
22418;DHT22;11376;50.932;4.442;2023-02-28T01:31:38;0.40;99.90
22418;DHT22;11376;50.932;4.442;2023-02-28T01:34:04;0.40;99.90
22418;DHT22;11376;50.932;4.442;2023-02-28T01:36:29;0.30;99.90
22418;DHT22;11376;50.932;4.442;2023-02-28T01:38:55;0.40;99.90
22418;DHT22;11376;50.932;4.442;2023-02-28T01:41:28;0.40;99.90
22418;DHT22;11376;50.932;4.442;2023-02-28T01:46:23;0.60;99.90
22418;DHT22;11376;50.932;4.442;2023-02-28T01:48:56;0.50;99.90
22418;DHT22;11376;50.932;4.442;2023-02-28T01:51:29;0.50;99.90
22418;DHT22;11376;50.932;4.442;2023-02-28T01:54:00;0.40;99.90
22418;DHT22;11376;50.932;4.442;2023-02-28T01:56:33;0.40;99.90
22418;DHT22;11376;50.932;4.442;2023-02-28T01:59:00;0.40;99.90
22418;DHT22;11376;50.932;4.442;2023-02-28T02:01:27;0.40;99.90
22418;DHT22;11376;50.932;4.442;2023-02-28T02:03:55;0.30;99.90
22418;DHT22;11376;50.932;4.442;2023-02-28T02:06:23;0.20;99.90
22418;DHT22;11376;50.932;4.442;2023-02-28T02:08:49;0.30;99.90
22418;DHT22;11376;50.932;4.442;2023-02-28T02:11:18;0.20;99.90
22418;DHT22;11376;50.932;4.442;2023-02-28T02:22:30;0.30;99.90
22418;DHT22;11376;50.932;4.442;2023-02-28T02:25:32;0.20;99.90
22418;DHT22;11376;50.932;4.442;2023-02-28T02:30:54;0.10;99.90
22418;DHT22;11376;50.932;4.442;2023-02-28T02:36:12;0.10;99.90
22418;DHT22;11376;50.932;4.442;2023-02-28T02:39:18;0.10;99.90
22418;DHT22;11376;50.932;4.442;2023-02-28T02:41:49;0.10;99.90
22418;DHT22;11376;50.932;4.442;2023-02-28T02:44:40;0.20;99.90
22418;DHT22;11376;50.932;4.442;2023-02-28T02:47:16;0.20;99.90
22418;DHT22;11376;50.932;4.442;2023-02-28T02:49:55;0.00;99.90
22418;DHT22;11376;50.932;4.442;2023-02-28T02:52:25;-0.10;99.90
22418;DHT22;11376;50.932;4.442;2023-02-28T02:54:54;-0.10;99.90
22418;DHT22;11376;50.932;4.442;2023-02-28T02:57:31;-0.10;99.90
22418;DHT22;11376;50.932;4.442;2023-02-28T02:59:59;-0.10;99.90
22418;DHT22;11376;50.932;4.442;2023-02-28T03:02:28;-0.20;99.90
22418;DHT22;11376;50.932;4.442;2023-02-28T03:05:02;-0.20;99.90
22418;DHT22;11376;50.932;4.442;2023-02-28T03:07:29;-0.20;99.90
22418;DHT22;11376;50.932;4.442;2023-02-28T03:09:56;-0.20;99.90
22418;DHT22;11376;50.932;4.442;2023-02-28T03:12:31;-0.20;99.90
22418;DHT22;11376;50.932;4.442;2023-02-28T03:15:10;-0.20;99.90
22418;DHT22;11376;50.932;4.442;2023-02-28T03:26:00;-0.10;99.90
22418;DHT22;11376;50.932;4.442;2023-02-28T03:31:30;-0.30;99.90
22418;DHT22;11376;50.932;4.442;2023-02-28T03:34:08;-0.30;99.90
22418;DHT22;11376;50.932;4.442;2023-02-28T03:36:41;-0.30;99.90
22418;DHT22;11376;50.932;4.442;2023-02-28T03:39:28;-0.40;99.90
22418;DHT22;11376;50.932;4.442;2023-02-28T03:42:02;-0.40;99.90
22418;DHT22;11376;50.932;4.442;2023-02-28T03:44:32;-0.40;99.90
22418;DHT22;11376;50.932;4.442;2023-02-28T03:47:10;-0.50;99.90
22418;DHT22;11376;50.932;4.442;2023-02-28T03:49:54;-0.40;99.90
22418;DHT22;11376;50.932;4.442;2023-02-28T03:52:21;-0.50;99.90
22418;DHT22;11376;50.932;4.442;2023-02-28T03:54:52;-0.50;99.90
22418;DHT22;11376;50.932;4.442;2023-02-28T04:00:10;-0.20;99.90
22418;DHT22;11376;50.932;4.442;2023-02-28T04:02:37;-0.30;99.90
22418;DHT22;11376;50.932;4.442;2023-02-28T04:05:03;-0.40;99.90
22418;DHT22;11376;50.932;4.442;2023-02-28T04:07:30;-0.50;99.90
22418;DHT22;11376;50.932;4.442;2023-02-28T04:09:56;-0.50;99.90
22418;DHT22;11376;50.932;4.442;2023-02-28T04:12:22;-0.60;99.90
22418;DHT22;11376;50.932;4.442;2023-02-28T04:14:49;-0.70;99.90
22418;DHT22;11376;50.932;4.442;2023-02-28T04:17:15;-0.70;99.90
22418;DHT22;11376;50.932;4.442;2023-02-28T04:19:41;-0.70;99.90
22418;DHT22;11376;50.932;4.442;2023-02-28T04:22:08;-0.70;99.90
22418;DHT22;11376;50.932;4.442;2023-02-28T04:24:34;-0.70;99.90
22418;DHT22;11376;50.932;4.442;2023-02-28T04:27:00;-0.70;99.90
22418;DHT22;11376;50.932;4.442;2023-02-28T04:29:27;-0.70;99.90
22418;DHT22;11376;50.932;4.442;2023-02-28T04:31:53;-0.60;99.90
22418;DHT22;11376;50.932;4.442;2023-02-28T04:34:20;-0.60;99.90
22418;DHT22;11376;50.932;4.442;2023-02-28T04:36:47;-0.50;99.90
22418;DHT22;11376;50.932;4.442;2023-02-28T04:39:15;-0.50;99.90
22418;DHT22;11376;50.932;4.442;2023-02-28T04:41:40;-0.40;99.90
22418;DHT22;11376;50.932;4.442;2023-02-28T04:44:06;-0.20;99.90
22418;DHT22;11376;50.932;4.442;2023-02-28T04:46:31;-0.20;99.90
22418;DHT22;11376;50.932;4.442;2023-02-28T04:48:57;-0.20;99.90
22418;DHT22;11376;50.932;4.442;2023-02-28T04:51:24;-0.20;99.90
22418;DHT22;11376;50.932;4.442;2023-02-28T04:53:49;-0.10;99.90
22418;DHT22;11376;50.932;4.442;2023-02-28T04:56:17;-0.10;99.90
22418;DHT22;11376;50.932;4.442;2023-02-28T04:58:43;0.00;99.90
22418;DHT22;11376;50.932;4.442;2023-02-28T05:01:22;0.00;99.90
22418;DHT22;11376;50.932;4.442;2023-02-28T05:03:48;0.20;99.90
22418;DHT22;11376;50.932;4.442;2023-02-28T05:06:14;0.50;99.90
22418;DHT22;11376;50.932;4.442;2023-02-28T05:08:40;0.60;99.90
22418;DHT22;11376;50.932;4.442;2023-02-28T05:11:12;0.60;99.90
22418;DHT22;11376;50.932;4.442;2023-02-28T05:13:38;0.60;99.90
22418;DHT22;11376;50.932;4.442;2023-02-28T05:16:04;0.80;99.90
22418;DHT22;11376;50.932;4.442;2023-02-28T05:18:30;1.00;99.90
22418;DHT22;11376;50.932;4.442;2023-02-28T05:20:55;1.10;99.90
22418;DHT22;11376;50.932;4.442;2023-02-28T05:23:22;1.10;99.90
22418;DHT22;11376;50.932;4.442;2023-02-28T05:25:48;1.10;99.90
22418;DHT22;11376;50.932;4.442;2023-02-28T05:28:14;1.20;99.90
22418;DHT22;11376;50.932;4.442;2023-02-28T05:30:40;1.30;99.90
22418;DHT22;11376;50.932;4.442;2023-02-28T05:33:05;1.40;99.90
22418;DHT22;11376;50.932;4.442;2023-02-28T05:35:31;1.50;99.90
22418;DHT22;11376;50.932;4.442;2023-02-28T05:37:57;1.50;99.90
22418;DHT22;11376;50.932;4.442;2023-02-28T05:40:22;1.60;99.90
22418;DHT22;11376;50.932;4.442;2023-02-28T05:42:50;1.60;99.90
22418;DHT22;11376;50.932;4.442;2023-02-28T05:45:16;1.70;99.90
22418;DHT22;11376;50.932;4.442;2023-02-28T05:47:42;1.80;99.90
22418;DHT22;11376;50.932;4.442;2023-02-28T05:50:08;1.90;99.90
22418;DHT22;11376;50.932;4.442;2023-02-28T05:52:36;1.90;99.90
22418;DHT22;11376;50.932;4.442;2023-02-28T05:55:01;2.00;99.90
22418;DHT22;11376;50.932;4.442;2023-02-28T05:57:27;2.00;99.90
22418;DHT22;11376;50.932;4.442;2023-02-28T05:59:52;1.90;99.90
22418;DHT22;11376;50.932;4.442;2023-02-28T06:02:18;1.70;99.90
22418;DHT22;11376;50.932;4.442;2023-02-28T06:04:44;1.80;99.90
22418;DHT22;11376;50.932;4.442;2023-02-28T06:07:10;1.90;99.90
22418;DHT22;11376;50.932;4.442;2023-02-28T06:09:36;1.90;99.90
22418;DHT22;11376;50.932;4.442;2023-02-28T06:12:04;1.90;99.90
22418;DHT22;11376;50.932;4.442;2023-02-28T06:14:31;2.00;99.90
22418;DHT22;11376;50.932;4.442;2023-02-28T06:16:59;2.00;99.90
22418;DHT22;11376;50.932;4.442;2023-02-28T06:19:25;2.00;99.90
22418;DHT22;11376;50.932;4.442;2023-02-28T06:21:52;1.90;99.90
22418;DHT22;11376;50.932;4.442;2023-02-28T06:24:19;1.90;99.90
22418;DHT22;11376;50.932;4.442;2023-02-28T06:26:45;1.90;99.90
22418;DHT22;11376;50.932;4.442;2023-02-28T06:29:10;1.90;99.90
22418;DHT22;11376;50.932;4.442;2023-02-28T06:31:36;2.00;99.90
22418;DHT22;11376;50.932;4.442;2023-02-28T06:34:04;2.00;99.90
22418;DHT22;11376;50.932;4.442;2023-02-28T06:36:29;2.00;99.90
22418;DHT22;11376;50.932;4.442;2023-02-28T06:38:55;2.00;99.90
22418;DHT22;11376;50.932;4.442;2023-02-28T06:41:25;2.00;99.90
22418;DHT22;11376;50.932;4.442;2023-02-28T06:43:51;2.00;99.90
22418;DHT22;11376;50.932;4.442;2023-02-28T06:46:18;2.10;99.90
22418;DHT22;11376;50.932;4.442;2023-02-28T06:48:45;2.20;99.90
22418;DHT22;11376;50.932;4.442;2023-02-28T06:51:17;2.30;99.90
22418;DHT22;11376;50.932;4.442;2023-02-28T06:53:45;2.30;99.90
22418;DHT22;11376;50.932;4.442;2023-02-28T06:56:13;2.30;99.90
22418;DHT22;11376;50.932;4.442;2023-02-28T06:58:39;2.30;99.90
22418;DHT22;11376;50.932;4.442;2023-02-28T07:01:05;2.40;99.90
22418;DHT22;11376;50.932;4.442;2023-02-28T07:03:31;2.40;99.90
22418;DHT22;11376;50.932;4.442;2023-02-28T07:05:57;2.40;99.90
22418;DHT22;11376;50.932;4.442;2023-02-28T07:08:23;2.50;99.90
22418;DHT22;11376;50.932;4.442;2023-02-28T07:10:52;2.60;99.90
22418;DHT22;11376;50.932;4.442;2023-02-28T07:13:18;2.70;99.90
22418;DHT22;11376;50.932;4.442;2023-02-28T07:15:44;2.70;99.90
22418;DHT22;11376;50.932;4.442;2023-02-28T07:18:09;2.80;99.90
22418;DHT22;11376;50.932;4.442;2023-02-28T07:20:35;2.60;99.90
22418;DHT22;11376;50.932;4.442;2023-02-28T07:23:01;2.60;99.90
22418;DHT22;11376;50.932;4.442;2023-02-28T07:25:28;2.60;99.90
22418;DHT22;11376;50.932;4.442;2023-02-28T07:27:55;2.70;99.90
22418;DHT22;11376;50.932;4.442;2023-02-28T07:30:21;2.70;99.90
22418;DHT22;11376;50.932;4.442;2023-02-28T07:32:46;2.70;99.90
22418;DHT22;11376;50.932;4.442;2023-02-28T07:35:12;2.70;99.90
22418;DHT22;11376;50.932;4.442;2023-02-28T07:37:41;2.70;99.90
22418;DHT22;11376;50.932;4.442;2023-02-28T07:40:09;2.80;99.90
22418;DHT22;11376;50.932;4.442;2023-02-28T07:42:37;2.90;99.90
22418;DHT22;11376;50.932;4.442;2023-02-28T07:45:04;3.10;99.90
22418;DHT22;11376;50.932;4.442;2023-02-28T07:47:30;3.10;99.90
22418;DHT22;11376;50.932;4.442;2023-02-28T07:49:56;3.10;99.90
22418;DHT22;11376;50.932;4.442;2023-02-28T07:52:22;3.00;99.90
22418;DHT22;11376;50.932;4.442;2023-02-28T07:54:49;2.90;99.90
22418;DHT22;11376;50.932;4.442;2023-02-28T07:57:15;2.90;99.90
22418;DHT22;11376;50.932;4.442;2023-02-28T07:59:41;3.00;99.90
22418;DHT22;11376;50.932;4.442;2023-02-28T08:02:06;3.00;99.90
22418;DHT22;11376;50.932;4.442;2023-02-28T08:04:32;3.00;99.90
22418;DHT22;11376;50.932;4.442;2023-02-28T08:06:58;3.10;99.90
22418;DHT22;11376;50.932;4.442;2023-02-28T08:09:24;3.10;99.90
22418;DHT22;11376;50.932;4.442;2023-02-28T08:11:49;3.10;99.90
22418;DHT22;11376;50.932;4.442;2023-02-28T08:14:15;3.20;99.90
22418;DHT22;11376;50.932;4.442;2023-02-28T08:16:40;3.40;99.90
22418;DHT22;11376;50.932;4.442;2023-02-28T08:19:08;3.60;99.90
22418;DHT22;11376;50.932;4.442;2023-02-28T08:21:34;3.80;99.90
22418;DHT22;11376;50.932;4.442;2023-02-28T08:23:59;4.00;99.90
22418;DHT22;11376;50.932;4.442;2023-02-28T08:26:25;4.10;99.90
22418;DHT22;11376;50.932;4.442;2023-02-28T08:28:51;4.20;99.90
22418;DHT22;11376;50.932;4.442;2023-02-28T08:31:17;4.40;99.90
22418;DHT22;11376;50.932;4.442;2023-02-28T08:33:44;4.60;99.90
22418;DHT22;11376;50.932;4.442;2023-02-28T08:36:10;4.80;99.90
22418;DHT22;11376;50.932;4.442;2023-02-28T08:38:36;4.80;99.90
22418;DHT22;11376;50.932;4.442;2023-02-28T08:41:08;5.00;99.90
22418;DHT22;11376;50.932;4.442;2023-02-28T08:43:35;4.90;99.90
22418;DHT22;11376;50.932;4.442;2023-02-28T08:46:00;4.90;99.90
22418;DHT22;11376;50.932;4.442;2023-02-28T08:48:27;4.90;99.90
22418;DHT22;11376;50.932;4.442;2023-02-28T08:51:23;4.90;99.90
22418;DHT22;11376;50.932;4.442;2023-02-28T08:53:53;4.90;99.90
22418;DHT22;11376;50.932;4.442;2023-02-28T08:56:19;4.80;99.90
22418;DHT22;11376;50.932;4.442;2023-02-28T08:58:47;4.80;99.90
22418;DHT22;11376;50.932;4.442;2023-02-28T09:01:18;4.70;99.90
22418;DHT22;11376;50.932;4.442;2023-02-28T09:03:44;4.70;99.90
22418;DHT22;11376;50.932;4.442;2023-02-28T09:06:11;4.70;99.90
22418;DHT22;11376;50.932;4.442;2023-02-28T09:08:38;4.80;99.90
22418;DHT22;11376;50.932;4.442;2023-02-28T09:11:04;5.00;99.90
22418;DHT22;11376;50.932;4.442;2023-02-28T09:13:30;4.90;99.90
22418;DHT22;11376;50.932;4.442;2023-02-28T09:15:58;4.80;99.90
22418;DHT22;11376;50.932;4.442;2023-02-28T09:18:24;4.90;99.90
22418;DHT22;11376;50.932;4.442;2023-02-28T09:20:50;4.80;99.90
22418;DHT22;11376;50.932;4.442;2023-02-28T09:23:16;4.70;99.90
22418;DHT22;11376;50.932;4.442;2023-02-28T09:25:47;4.80;99.90
22418;DHT22;11376;50.932;4.442;2023-02-28T09:28:13;4.80;99.90
22418;DHT22;11376;50.932;4.442;2023-02-28T09:30:41;4.70;99.90
22418;DHT22;11376;50.932;4.442;2023-02-28T09:33:07;4.70;99.90
22418;DHT22;11376;50.932;4.442;2023-02-28T09:35:33;4.80;99.90
22418;DHT22;11376;50.932;4.442;2023-02-28T09:37:59;4.70;99.90
22418;DHT22;11376;50.932;4.442;2023-02-28T09:40:26;4.90;99.90
22418;DHT22;11376;50.932;4.442;2023-02-28T09:42:54;4.90;99.90
22418;DHT22;11376;50.932;4.442;2023-02-28T09:45:35;4.80;99.90
22418;DHT22;11376;50.932;4.442;2023-02-28T09:48:06;4.90;99.90
22418;DHT22;11376;50.932;4.442;2023-02-28T09:50:38;5.10;99.90
22418;DHT22;11376;50.932;4.442;2023-02-28T09:53:21;5.20;99.90
22418;DHT22;11376;50.932;4.442;2023-02-28T09:55:58;5.30;99.90
22418;DHT22;11376;50.932;4.442;2023-02-28T09:58:33;5.30;99.90
22418;DHT22;11376;50.932;4.442;2023-02-28T10:01:18;5.30;99.90
22418;DHT22;11376;50.932;4.442;2023-02-28T10:06:28;5.40;99.90
22418;DHT22;11376;50.932;4.442;2023-02-28T10:11:25;5.60;99.90
22418;DHT22;11376;50.932;4.442;2023-02-28T10:19:03;6.40;99.90
22418;DHT22;11376;50.932;4.442;2023-02-28T10:21:38;6.70;99.90
22418;DHT22;11376;50.932;4.442;2023-02-28T10:24:23;7.10;99.90
22418;DHT22;11376;50.932;4.442;2023-02-28T10:26:58;7.10;99.90
22418;DHT22;11376;50.932;4.442;2023-02-28T10:29:24;7.50;99.90
22418;DHT22;11376;50.932;4.442;2023-02-28T10:31:50;7.90;99.90
22418;DHT22;11376;50.932;4.442;2023-02-28T10:34:16;8.90;99.90
22418;DHT22;11376;50.932;4.442;2023-02-28T10:36:41;9.20;99.90
22418;DHT22;11376;50.932;4.442;2023-02-28T10:39:40;10.30;99.90
22418;DHT22;11376;50.932;4.442;2023-02-28T10:42:26;11.50;95.30
22418;DHT22;11376;50.932;4.442;2023-02-28T10:45:14;12.90;82.40
22418;DHT22;11376;50.932;4.442;2023-02-28T10:48:06;13.70;73.10
22418;DHT22;11376;50.932;4.442;2023-02-28T10:50:44;14.90;67.30
22418;DHT22;11376;50.932;4.442;2023-02-28T10:56:03;15.90;56.60
22418;DHT22;11376;50.932;4.442;2023-02-28T11:01:38;17.20;51.70
22418;DHT22;11376;50.932;4.442;2023-02-28T11:04:18;18.30;47.70
22418;DHT22;11376;50.932;4.442;2023-02-28T11:06:44;19.80;44.00
22418;DHT22;11376;50.932;4.442;2023-02-28T11:09:27;20.30;41.40
22418;DHT22;11376;50.932;4.442;2023-02-28T11:11:54;19.90;40.70
22418;DHT22;11376;50.932;4.442;2023-02-28T11:14:32;19.80;40.00
22418;DHT22;11376;50.932;4.442;2023-02-28T11:17:13;20.20;38.80
22418;DHT22;11376;50.932;4.442;2023-02-28T11:19:44;20.90;37.00
22418;DHT22;11376;50.932;4.442;2023-02-28T11:22:11;19.80;38.10
22418;DHT22;11376;50.932;4.442;2023-02-28T11:24:45;19.50;37.70
22418;DHT22;11376;50.932;4.442;2023-02-28T11:29:57;22.10;35.00
22418;DHT22;11376;50.932;4.442;2023-02-28T11:32:28;22.80;33.00
22418;DHT22;11376;50.932;4.442;2023-02-28T11:35:21;21.70;33.60
22418;DHT22;11376;50.932;4.442;2023-02-28T11:37:48;21.50;32.60
22418;DHT22;11376;50.932;4.442;2023-02-28T11:40:17;21.90;33.70
22418;DHT22;11376;50.932;4.442;2023-02-28T11:48:23;21.00;32.60
22418;DHT22;11376;50.932;4.442;2023-02-28T11:51:27;20.60;33.40
22418;DHT22;11376;50.932;4.442;2023-02-28T11:57:00;21.70;31.90
22418;DHT22;11376;50.932;4.442;2023-02-28T12:02:01;24.30;29.30
22418;DHT22;11376;50.932;4.442;2023-02-28T12:10:27;22.00;29.90
22418;DHT22;11376;50.932;4.442;2023-02-28T12:18:50;22.50;29.80
22418;DHT22;11376;50.932;4.442;2023-02-28T12:24:46;23.00;29.30
22418;DHT22;11376;50.932;4.442;2023-02-28T12:27:19;23.30;28.80
22418;DHT22;11376;50.932;4.442;2023-02-28T12:30:05;23.40;28.80
22418;DHT22;11376;50.932;4.442;2023-02-28T12:32:40;23.70;28.50
22418;DHT22;11376;50.932;4.442;2023-02-28T12:37:49;25.00;27.40
22418;DHT22;11376;50.932;4.442;2023-02-28T12:40:20;24.40;27.50
22418;DHT22;11376;50.932;4.442;2023-02-28T12:42:52;24.00;27.60
22418;DHT22;11376;50.932;4.442;2023-02-28T12:45:41;23.70;27.30
22418;DHT22;11376;50.932;4.442;2023-02-28T12:48:13;23.60;27.50
22418;DHT22;11376;50.932;4.442;2023-02-28T12:50:40;24.80;26.40
22418;DHT22;11376;50.932;4.442;2023-02-28T12:53:27;25.00;26.50
22418;DHT22;11376;50.932;4.442;2023-02-28T12:58:48;25.50;25.50
22418;DHT22;11376;50.932;4.442;2023-02-28T13:07:32;23.80;26.70
22418;DHT22;11376;50.932;4.442;2023-02-28T13:10:04;25.10;25.40
22418;DHT22;11376;50.932;4.442;2023-02-28T13:12:31;24.20;25.80
22418;DHT22;11376;50.932;4.442;2023-02-28T13:15:17;24.10;26.40
22418;DHT22;11376;50.932;4.442;2023-02-28T13:17:49;23.40;26.30
22418;DHT22;11376;50.932;4.442;2023-02-28T13:20:18;23.30;26.50
22418;DHT22;11376;50.932;4.442;2023-02-28T13:22:47;23.20;26.80
22418;DHT22;11376;50.932;4.442;2023-02-28T13:27:49;22.60;26.80
22418;DHT22;11376;50.932;4.442;2023-02-28T13:35:45;23.20;26.90
22418;DHT22;11376;50.932;4.442;2023-02-28T13:38:23;22.50;27.10
22418;DHT22;11376;50.932;4.442;2023-02-28T13:40:49;21.50;28.00
22418;DHT22;11376;50.932;4.442;2023-02-28T13:43:17;22.30;27.50
22418;DHT22;11376;50.932;4.442;2023-02-28T13:46:08;22.20;27.50
22418;DHT22;11376;50.932;4.442;2023-02-28T13:48:35;22.10;27.80
22418;DHT22;11376;50.932;4.442;2023-02-28T13:51:37;22.40;27.40
22418;DHT22;11376;50.932;4.442;2023-02-28T13:57:08;20.50;28.60
22418;DHT22;11376;50.932;4.442;2023-02-28T14:05:20;19.80;29.20
22418;DHT22;11376;50.932;4.442;2023-02-28T14:07:53;20.10;28.80
22418;DHT22;11376;50.932;4.442;2023-02-28T14:10:29;20.20;28.70
22418;DHT22;11376;50.932;4.442;2023-02-28T14:15:54;18.70;30.70
22418;DHT22;11376;50.932;4.442;2023-02-28T14:18:27;18.80;30.40
22418;DHT22;11376;50.932;4.442;2023-02-28T14:21:01;18.80;30.50
22418;DHT22;11376;50.932;4.442;2023-02-28T14:23:33;18.30;31.50
22418;DHT22;11376;50.932;4.442;2023-02-28T14:26:13;18.10;31.90
22418;DHT22;11376;50.932;4.442;2023-02-28T14:29:09;18.80;31.50
22418;DHT22;11376;50.932;4.442;2023-02-28T14:31:44;19.10;31.10
22418;DHT22;11376;50.932;4.442;2023-02-28T14:37:00;19.40;30.00
22418;DHT22;11376;50.932;4.442;2023-02-28T14:39:27;18.90;31.20
22418;DHT22;11376;50.932;4.442;2023-02-28T14:41:56;19.30;30.80
22418;DHT22;11376;50.932;4.442;2023-02-28T14:44:28;19.10;30.70
22418;DHT22;11376;50.932;4.442;2023-02-28T14:46:59;19.20;31.60
22418;DHT22;11376;50.932;4.442;2023-02-28T14:49:36;19.50;30.80
22418;DHT22;11376;50.932;4.442;2023-02-28T14:54:36;19.00;30.90
22418;DHT22;11376;50.932;4.442;2023-02-28T14:57:02;19.10;31.70
22418;DHT22;11376;50.932;4.442;2023-02-28T14:59:30;19.50;31.10
22418;DHT22;11376;50.932;4.442;2023-02-28T15:02:19;19.80;30.30
22418;DHT22;11376;50.932;4.442;2023-02-28T15:04:53;19.80;31.10
22418;DHT22;11376;50.932;4.442;2023-02-28T15:07:19;19.90;30.40
22418;DHT22;11376;50.932;4.442;2023-02-28T15:10:25;19.70;30.30
22418;DHT22;11376;50.932;4.442;2023-02-28T15:12:52;19.60;31.10
22418;DHT22;11376;50.932;4.442;2023-02-28T15:15:19;19.10;31.40
22418;DHT22;11376;50.932;4.442;2023-02-28T15:17:49;19.30;31.30
22418;DHT22;11376;50.932;4.442;2023-02-28T15:20:16;18.80;31.80
22418;DHT22;11376;50.932;4.442;2023-02-28T15:22:42;18.30;32.60
22418;DHT22;11376;50.932;4.442;2023-02-28T15:25:10;17.70;33.30
22418;DHT22;11376;50.932;4.442;2023-02-28T15:27:50;17.30;34.40
22418;DHT22;11376;50.932;4.442;2023-02-28T15:30:26;16.50;35.60
22418;DHT22;11376;50.932;4.442;2023-02-28T15:35:34;14.20;39.40
22418;DHT22;11376;50.932;4.442;2023-02-28T15:38:16;13.40;40.20
22418;DHT22;11376;50.932;4.442;2023-02-28T15:40:44;12.60;42.20
22418;DHT22;11376;50.932;4.442;2023-02-28T15:43:16;11.80;44.20
22418;DHT22;11376;50.932;4.442;2023-02-28T15:48:38;10.50;45.80
22418;DHT22;11376;50.932;4.442;2023-02-28T15:53:51;9.90;47.40
22418;DHT22;11376;50.932;4.442;2023-02-28T15:56:32;9.40;47.90
22418;DHT22;11376;50.932;4.442;2023-02-28T15:59:02;9.00;49.40
22418;DHT22;11376;50.932;4.442;2023-02-28T16:01:38;8.70;50.30
22418;DHT22;11376;50.932;4.442;2023-02-28T16:04:12;8.50;51.40
22418;DHT22;11376;50.932;4.442;2023-02-28T16:06:43;8.30;52.10
22418;DHT22;11376;50.932;4.442;2023-02-28T16:09:15;7.90;53.00
22418;DHT22;11376;50.932;4.442;2023-02-28T16:11:48;7.90;53.10
22418;DHT22;11376;50.932;4.442;2023-02-28T16:14:20;7.70;54.00
22418;DHT22;11376;50.932;4.442;2023-02-28T16:16:50;7.60;55.00
22418;DHT22;11376;50.932;4.442;2023-02-28T16:19:17;7.50;55.40
22418;DHT22;11376;50.932;4.442;2023-02-28T16:21:42;7.40;55.60
22418;DHT22;11376;50.932;4.442;2023-02-28T16:24:08;7.40;57.00
22418;DHT22;11376;50.932;4.442;2023-02-28T16:26:34;7.20;56.70
22418;DHT22;11376;50.932;4.442;2023-02-28T16:29:03;7.20;57.20
22418;DHT22;11376;50.932;4.442;2023-02-28T16:31:29;7.00;57.80
22418;DHT22;11376;50.932;4.442;2023-02-28T16:33:55;6.80;58.90
22418;DHT22;11376;50.932;4.442;2023-02-28T16:36:22;6.70;59.60
22418;DHT22;11376;50.932;4.442;2023-02-28T16:38:51;6.70;61.40
22418;DHT22;11376;50.932;4.442;2023-02-28T16:41:22;6.60;61.20
22418;DHT22;11376;50.932;4.442;2023-02-28T16:43:51;6.50;62.80
22418;DHT22;11376;50.932;4.442;2023-02-28T16:46:18;6.50;64.60
22418;DHT22;11376;50.932;4.442;2023-02-28T16:48:45;6.50;65.70
22418;DHT22;11376;50.932;4.442;2023-02-28T16:51:14;6.40;65.50
22418;DHT22;11376;50.932;4.442;2023-02-28T16:53:40;6.30;65.30
22418;DHT22;11376;50.932;4.442;2023-02-28T16:56:06;6.30;66.40
22418;DHT22;11376;50.932;4.442;2023-02-28T16:58:34;6.20;67.80
22418;DHT22;11376;50.932;4.442;2023-02-28T17:01:01;6.10;68.70
22418;DHT22;11376;50.932;4.442;2023-02-28T17:03:28;6.00;69.20
22418;DHT22;11376;50.932;4.442;2023-02-28T17:05:54;6.00;69.90
22418;DHT22;11376;50.932;4.442;2023-02-28T17:08:20;6.00;70.40
22418;DHT22;11376;50.932;4.442;2023-02-28T17:10:46;5.80;71.70
22418;DHT22;11376;50.932;4.442;2023-02-28T17:13:12;5.70;72.30
22418;DHT22;11376;50.932;4.442;2023-02-28T17:15:38;5.70;73.50
22418;DHT22;11376;50.932;4.442;2023-02-28T17:18:04;5.50;74.00
22418;DHT22;11376;50.932;4.442;2023-02-28T17:20:30;5.50;74.50
22418;DHT22;11376;50.932;4.442;2023-02-28T17:22:56;5.50;74.90
22418;DHT22;11376;50.932;4.442;2023-02-28T17:25:23;5.50;75.40
22418;DHT22;11376;50.932;4.442;2023-02-28T17:27:49;5.40;75.90
22418;DHT22;11376;50.932;4.442;2023-02-28T17:30:20;5.40;76.50
22418;DHT22;11376;50.932;4.442;2023-02-28T17:32:46;5.30;77.10
22418;DHT22;11376;50.932;4.442;2023-02-28T17:35:12;5.20;78.50
22418;DHT22;11376;50.932;4.442;2023-02-28T17:37:38;5.10;79.70
22418;DHT22;11376;50.932;4.442;2023-02-28T17:40:04;5.00;80.50
22418;DHT22;11376;50.932;4.442;2023-02-28T17:42:30;5.10;81.40
22418;DHT22;11376;50.932;4.442;2023-02-28T17:44:56;4.90;82.40
22418;DHT22;11376;50.932;4.442;2023-02-28T17:47:21;4.90;83.50
22418;DHT22;11376;50.932;4.442;2023-02-28T17:49:47;4.80;84.10
22418;DHT22;11376;50.932;4.442;2023-02-28T17:52:12;4.70;85.00
22418;DHT22;11376;50.932;4.442;2023-02-28T17:54:38;4.70;85.90
22418;DHT22;11376;50.932;4.442;2023-02-28T17:57:04;4.70;86.10